sensor_id;sensor_type;location;lat;lon;timestamp;temperature;humidity
69776;DHT22;57049;51.450;-2.516;2023-02-28T00:00:32;1.09;96.85
69776;DHT22;57049;51.450;-2.516;2023-02-28T00:02:58;1.15;97.52
69776;DHT22;57049;51.450;-2.516;2023-02-28T00:05:25;1.15;97.17
69776;DHT22;57049;51.450;-2.516;2023-02-28T00:07:51;1.08;97.12
69776;DHT22;57049;51.450;-2.516;2023-02-28T00:10:22;1.05;97.16
69776;DHT22;57049;51.450;-2.516;2023-02-28T00:12:49;1.06;97.27
69776;DHT22;57049;51.450;-2.516;2023-02-28T00:15:16;0.98;97.05
69776;DHT22;57049;51.450;-2.516;2023-02-28T00:17:41;0.93;97.37
69776;DHT22;57049;51.450;-2.516;2023-02-28T00:20:08;0.96;97.34
69776;DHT22;57049;51.450;-2.516;2023-02-28T00:22:36;1.05;97.55
69776;DHT22;57049;51.450;-2.516;2023-02-28T00:25:03;1.21;97.78
69776;DHT22;57049;51.450;-2.516;2023-02-28T00:27:29;1.08;97.45
69776;DHT22;57049;51.450;-2.516;2023-02-28T00:29:55;1.01;97.25
69776;DHT22;57049;51.450;-2.516;2023-02-28T00:32:20;0.93;97.35
69776;DHT22;57049;51.450;-2.516;2023-02-28T00:34:45;0.91;97.48
69776;DHT22;57049;51.450;-2.516;2023-02-28T00:37:11;0.85;97.40
69776;DHT22;57049;51.450;-2.516;2023-02-28T00:39:39;0.84;97.76
69776;DHT22;57049;51.450;-2.516;2023-02-28T00:42:06;0.82;97.76
69776;DHT22;57049;51.450;-2.516;2023-02-28T00:44:32;0.82;98.03
69776;DHT22;57049;51.450;-2.516;2023-02-28T00:46:58;0.80;97.79
69776;DHT22;57049;51.450;-2.516;2023-02-28T00:49:25;0.78;97.73
69776;DHT22;57049;51.450;-2.516;2023-02-28T00:51:51;0.70;97.84
69776;DHT22;57049;51.450;-2.516;2023-02-28T00:54:17;0.67;97.98
69776;DHT22;57049;51.450;-2.516;2023-02-28T00:56:43;0.65;98.02
69776;DHT22;57049;51.450;-2.516;2023-02-28T00:59:08;0.62;97.85
69776;DHT22;57049;51.450;-2.516;2023-02-28T01:01:34;0.60;97.94
69776;DHT22;57049;51.450;-2.516;2023-02-28T01:04:00;0.61;97.90
69776;DHT22;57049;51.450;-2.516;2023-02-28T01:06:26;0.58;97.98
69776;DHT22;57049;51.450;-2.516;2023-02-28T01:08:51;0.58;98.01
69776;DHT22;57049;51.450;-2.516;2023-02-28T01:11:17;0.61;98.12
69776;DHT22;57049;51.450;-2.516;2023-02-28T01:13:44;0.61;98.01
69776;DHT22;57049;51.450;-2.516;2023-02-28T01:16:11;0.65;98.08
69776;DHT22;57049;51.450;-2.516;2023-02-28T01:18:37;0.70;98.18
69776;DHT22;57049;51.450;-2.516;2023-02-28T01:21:10;0.72;98.06
69776;DHT22;57049;51.450;-2.516;2023-02-28T01:23:38;0.77;97.96
69776;DHT22;57049;51.450;-2.516;2023-02-28T01:26:18;0.74;97.96
69776;DHT22;57049;51.450;-2.516;2023-02-28T01:28:44;0.70;97.91
69776;DHT22;57049;51.450;-2.516;2023-02-28T01:31:10;0.62;97.84
69776;DHT22;57049;51.450;-2.516;2023-02-28T01:33:36;0.58;97.87
69776;DHT22;57049;51.450;-2.516;2023-02-28T01:36:23;0.53;97.84
69776;DHT22;57049;51.450;-2.516;2023-02-28T01:38:49;0.44;97.91
69776;DHT22;57049;51.450;-2.516;2023-02-28T01:41:27;0.46;98.42
69776;DHT22;57049;51.450;-2.516;2023-02-28T01:46:41;0.33;98.17
69776;DHT22;57049;51.450;-2.516;2023-02-28T01:49:16;0.26;98.12
69776;DHT22;57049;51.450;-2.516;2023-02-28T01:51:50;0.23;98.19
69776;DHT22;57049;51.450;-2.516;2023-02-28T01:54:21;0.24;98.28
69776;DHT22;57049;51.450;-2.516;2023-02-28T01:56:53;0.29;98.38
69776;DHT22;57049;51.450;-2.516;2023-02-28T01:59:35;0.41;98.46
69776;DHT22;57049;51.450;-2.516;2023-02-28T02:02:02;0.44;98.46
69776;DHT22;57049;51.450;-2.516;2023-02-28T02:04:34;0.50;98.37
69776;DHT22;57049;51.450;-2.516;2023-02-28T02:07:01;0.51;98.32
69776;DHT22;57049;51.450;-2.516;2023-02-28T02:09:26;0.56;98.26
69776;DHT22;57049;51.450;-2.516;2023-02-28T02:11:54;0.57;98.31
69776;DHT22;57049;51.450;-2.516;2023-02-28T02:30:23;1.49;97.33
69776;DHT22;57049;51.450;-2.516;2023-02-28T02:36:02;1.74;96.48
69776;DHT22;57049;51.450;-2.516;2023-02-28T02:43:44;1.87;95.54
69776;DHT22;57049;51.450;-2.516;2023-02-28T02:46:19;1.81;95.61
69776;DHT22;57049;51.450;-2.516;2023-02-28T02:48:46;1.67;95.70
69776;DHT22;57049;51.450;-2.516;2023-02-28T02:51:17;1.52;95.70
69776;DHT22;57049;51.450;-2.516;2023-02-28T02:53:57;1.46;96.06
69776;DHT22;57049;51.450;-2.516;2023-02-28T02:56:28;1.35;95.95
69776;DHT22;57049;51.450;-2.516;2023-02-28T02:59:00;1.33;96.22
69776;DHT22;57049;51.450;-2.516;2023-02-28T03:01:28;1.28;96.40
69776;DHT22;57049;51.450;-2.516;2023-02-28T03:04:04;1.26;96.27
69776;DHT22;57049;51.450;-2.516;2023-02-28T03:06:31;1.33;96.40
69776;DHT22;57049;51.450;-2.516;2023-02-28T03:08:56;1.52;96.11
69776;DHT22;57049;51.450;-2.516;2023-02-28T03:11:22;1.39;96.02
69776;DHT22;57049;51.450;-2.516;2023-02-28T03:16:36;1.57;95.75
69776;DHT22;57049;51.450;-2.516;2023-02-28T03:30:13;2.14;94.36
69776;DHT22;57049;51.450;-2.516;2023-02-28T03:32:58;2.29;94.01
69776;DHT22;57049;51.450;-2.516;2023-02-28T03:35:31;2.38;93.56
69776;DHT22;57049;51.450;-2.516;2023-02-28T03:38:09;2.55;92.94
69776;DHT22;57049;51.450;-2.516;2023-02-28T03:40:43;2.59;92.81
69776;DHT22;57049;51.450;-2.516;2023-02-28T03:43:13;2.63;92.63
69776;DHT22;57049;51.450;-2.516;2023-02-28T03:45:41;2.72;92.37
69776;DHT22;57049;51.450;-2.516;2023-02-28T03:48:30;2.73;92.19
69776;DHT22;57049;51.450;-2.516;2023-02-28T03:50:58;2.71;92.23
69776;DHT22;57049;51.450;-2.516;2023-02-28T03:53:28;2.73;92.24
69776;DHT22;57049;51.450;-2.516;2023-02-28T03:56:09;2.80;92.28
69776;DHT22;57049;51.450;-2.516;2023-02-28T04:01:23;2.85;92.47
69776;DHT22;57049;51.450;-2.516;2023-02-28T04:03:50;2.87;92.64
69776;DHT22;57049;51.450;-2.516;2023-02-28T04:06:18;2.90;92.88
69776;DHT22;57049;51.450;-2.516;2023-02-28T04:08:45;2.89;93.08
69776;DHT22;57049;51.450;-2.516;2023-02-28T04:13:50;2.96;93.86
69776;DHT22;57049;51.450;-2.516;2023-02-28T04:16:16;3.00;94.02
69776;DHT22;57049;51.450;-2.516;2023-02-28T04:18:42;3.00;94.02
69776;DHT22;57049;51.450;-2.516;2023-02-28T04:21:09;3.01;93.93
69776;DHT22;57049;51.450;-2.516;2023-02-28T04:23:35;3.03;94.02
69776;DHT22;57049;51.450;-2.516;2023-02-28T04:26:00;3.06;94.03
69776;DHT22;57049;51.450;-2.516;2023-02-28T04:28:26;3.03;94.06
69776;DHT22;57049;51.450;-2.516;2023-02-28T04:31:01;3.10;93.73
69776;DHT22;57049;51.450;-2.516;2023-02-28T04:33:27;3.11;93.72
69776;DHT22;57049;51.450;-2.516;2023-02-28T04:36:07;3.10;93.58
69776;DHT22;57049;51.450;-2.516;2023-02-28T04:38:35;3.17;93.39
69776;DHT22;57049;51.450;-2.516;2023-02-28T04:41:01;3.20;93.47
69776;DHT22;57049;51.450;-2.516;2023-02-28T04:43:27;3.23;93.47
69776;DHT22;57049;51.450;-2.516;2023-02-28T04:45:56;3.20;93.53
69776;DHT22;57049;51.450;-2.516;2023-02-28T04:48:25;3.18;93.57
69776;DHT22;57049;51.450;-2.516;2023-02-28T04:50:51;3.21;93.69
69776;DHT22;57049;51.450;-2.516;2023-02-28T04:53:17;3.20;93.63
69776;DHT22;57049;51.450;-2.516;2023-02-28T04:55:43;3.20;93.69
69776;DHT22;57049;51.450;-2.516;2023-02-28T04:58:09;3.17;93.61
69776;DHT22;57049;51.450;-2.516;2023-02-28T05:00:35;3.17;93.54
69776;DHT22;57049;51.450;-2.516;2023-02-28T05:03:00;3.23;93.62
69776;DHT22;57049;51.450;-2.516;2023-02-28T05:05:26;3.26;93.57
69776;DHT22;57049;51.450;-2.516;2023-02-28T05:07:51;3.27;93.64
69776;DHT22;57049;51.450;-2.516;2023-02-28T05:10:19;3.30;93.55
69776;DHT22;57049;51.450;-2.516;2023-02-28T05:12:44;3.30;93.57
69776;DHT22;57049;51.450;-2.516;2023-02-28T05:15:13;3.32;93.35
69776;DHT22;57049;51.450;-2.516;2023-02-28T05:17:39;3.38;93.27
69776;DHT22;57049;51.450;-2.516;2023-02-28T05:20:05;3.35;93.19
69776;DHT22;57049;51.450;-2.516;2023-02-28T05:22:31;3.35;93.31
69776;DHT22;57049;51.450;-2.516;2023-02-28T05:24:57;3.35;93.12
69776;DHT22;57049;51.450;-2.516;2023-02-28T05:27:22;3.41;93.00
69776;DHT22;57049;51.450;-2.516;2023-02-28T05:29:48;3.38;92.86
69776;DHT22;57049;51.450;-2.516;2023-02-28T05:32:14;3.44;92.70
69776;DHT22;57049;51.450;-2.516;2023-02-28T05:34:41;3.47;92.62
69776;DHT22;57049;51.450;-2.516;2023-02-28T05:37:11;3.51;91.48
69776;DHT22;57049;51.450;-2.516;2023-02-28T05:39:37;3.67;91.02
69776;DHT22;57049;51.450;-2.516;2023-02-28T05:42:03;3.69;90.55
69776;DHT22;57049;51.450;-2.516;2023-02-28T05:44:29;3.69;90.61
69776;DHT22;57049;51.450;-2.516;2023-02-28T05:46:55;3.64;90.97
69776;DHT22;57049;51.450;-2.516;2023-02-28T05:49:21;3.72;90.61
69776;DHT22;57049;51.450;-2.516;2023-02-28T05:51:46;3.72;90.75
69776;DHT22;57049;51.450;-2.516;2023-02-28T05:54:12;3.75;90.59
69776;DHT22;57049;51.450;-2.516;2023-02-28T05:56:37;3.74;90.78
69776;DHT22;57049;51.450;-2.516;2023-02-28T05:59:05;3.72;90.33
69776;DHT22;57049;51.450;-2.516;2023-02-28T06:03:56;3.71;90.69
69776;DHT22;57049;51.450;-2.516;2023-02-28T06:06:21;3.69;90.92
69776;DHT22;57049;51.450;-2.516;2023-02-28T06:08:47;3.68;91.48
69776;DHT22;57049;51.450;-2.516;2023-02-28T06:11:13;3.65;91.61
69776;DHT22;57049;51.450;-2.516;2023-02-28T06:13:39;3.62;92.23
69776;DHT22;57049;51.450;-2.516;2023-02-28T06:16:04;3.58;92.41
69776;DHT22;57049;51.450;-2.516;2023-02-28T06:18:30;3.58;92.81
69776;DHT22;57049;51.450;-2.516;2023-02-28T06:20:56;3.54;92.87
69776;DHT22;57049;51.450;-2.516;2023-02-28T06:23:22;3.47;93.11
69776;DHT22;57049;51.450;-2.516;2023-02-28T06:25:47;3.40;93.63
69776;DHT22;57049;51.450;-2.516;2023-02-28T06:28:13;3.37;94.35
69776;DHT22;57049;51.450;-2.516;2023-02-28T06:30:39;3.30;94.45
69776;DHT22;57049;51.450;-2.516;2023-02-28T06:33:04;3.24;95.26
69776;DHT22;57049;51.450;-2.516;2023-02-28T06:35:30;3.20;95.31
69776;DHT22;57049;51.450;-2.516;2023-02-28T06:37:56;3.17;96.09
69776;DHT22;57049;51.450;-2.516;2023-02-28T06:40:21;3.16;96.49
69776;DHT22;57049;51.450;-2.516;2023-02-28T06:42:46;3.16;96.37
69776;DHT22;57049;51.450;-2.516;2023-02-28T06:45:12;3.18;96.81
69776;DHT22;57049;51.450;-2.516;2023-02-28T06:47:40;3.20;96.51
69776;DHT22;57049;51.450;-2.516;2023-02-28T06:50:07;3.23;96.39
69776;DHT22;57049;51.450;-2.516;2023-02-28T06:52:33;3.21;96.90
69776;DHT22;57049;51.450;-2.516;2023-02-28T06:55:01;3.21;96.72
69776;DHT22;57049;51.450;-2.516;2023-02-28T06:57:30;3.18;96.92
69776;DHT22;57049;51.450;-2.516;2023-02-28T07:00:00;3.17;97.03
69776;DHT22;57049;51.450;-2.516;2023-02-28T07:02:26;3.21;96.82
69776;DHT22;57049;51.450;-2.516;2023-02-28T07:04:52;3.16;97.52
69776;DHT22;57049;51.450;-2.516;2023-02-28T07:07:17;3.17;97.36
69776;DHT22;57049;51.450;-2.516;2023-02-28T07:09:42;3.14;97.52
69776;DHT22;57049;51.450;-2.516;2023-02-28T07:12:08;3.18;97.96
69776;DHT22;57049;51.450;-2.516;2023-02-28T07:14:33;3.18;97.92
69776;DHT22;57049;51.450;-2.516;2023-02-28T07:17:01;3.20;98.06
69776;DHT22;57049;51.450;-2.516;2023-02-28T07:19:26;3.16;98.13
69776;DHT22;57049;51.450;-2.516;2023-02-28T07:21:52;3.18;98.13
69776;DHT22;57049;51.450;-2.516;2023-02-28T07:24:17;3.21;98.40
69776;DHT22;57049;51.450;-2.516;2023-02-28T07:26:43;3.21;98.46
69776;DHT22;57049;51.450;-2.516;2023-02-28T07:29:09;3.23;98.50
69776;DHT22;57049;51.450;-2.516;2023-02-28T07:31:34;3.23;98.57
69776;DHT22;57049;51.450;-2.516;2023-02-28T07:34:00;3.30;98.61
69776;DHT22;57049;51.450;-2.516;2023-02-28T07:36:25;3.32;98.53
69776;DHT22;57049;51.450;-2.516;2023-02-28T07:38:50;3.34;98.57
69776;DHT22;57049;51.450;-2.516;2023-02-28T07:41:18;3.34;98.61
69776;DHT22;57049;51.450;-2.516;2023-02-28T07:43:44;3.38;98.59
69776;DHT22;57049;51.450;-2.516;2023-02-28T07:46:12;3.41;98.53
69776;DHT22;57049;51.450;-2.516;2023-02-28T07:48:40;3.41;98.61
69776;DHT22;57049;51.450;-2.516;2023-02-28T07:51:06;3.40;98.68
69776;DHT22;57049;51.450;-2.516;2023-02-28T07:53:32;3.48;98.65
69776;DHT22;57049;51.450;-2.516;2023-02-28T07:56:00;3.47;98.71
69776;DHT22;57049;51.450;-2.516;2023-02-28T07:58:26;3.48;98.60
69776;DHT22;57049;51.450;-2.516;2023-02-28T08:00:52;3.52;98.57
69776;DHT22;57049;51.450;-2.516;2023-02-28T08:03:19;3.54;98.62
69776;DHT22;57049;51.450;-2.516;2023-02-28T08:05:44;3.51;98.69
69776;DHT22;57049;51.450;-2.516;2023-02-28T08:08:10;3.61;98.45
69776;DHT22;57049;51.450;-2.516;2023-02-28T08:10:36;3.67;98.44
69776;DHT22;57049;51.450;-2.516;2023-02-28T08:13:02;3.62;98.46
69776;DHT22;57049;51.450;-2.516;2023-02-28T08:15:27;3.61;98.66
69776;DHT22;57049;51.450;-2.516;2023-02-28T08:17:53;3.65;98.57
69776;DHT22;57049;51.450;-2.516;2023-02-28T08:20:18;3.72;98.64
69776;DHT22;57049;51.450;-2.516;2023-02-28T08:22:44;3.77;98.51
69776;DHT22;57049;51.450;-2.516;2023-02-28T08:25:10;3.83;98.31
69776;DHT22;57049;51.450;-2.516;2023-02-28T08:27:36;3.89;98.26
69776;DHT22;57049;51.450;-2.516;2023-02-28T08:30:02;3.93;98.18
69776;DHT22;57049;51.450;-2.516;2023-02-28T08:32:28;3.98;98.05
69776;DHT22;57049;51.450;-2.516;2023-02-28T08:34:53;4.02;97.97
69776;DHT22;57049;51.450;-2.516;2023-02-28T08:37:19;4.10;97.79
69776;DHT22;57049;51.450;-2.516;2023-02-28T08:39:44;4.19;97.76
69776;DHT22;57049;51.450;-2.516;2023-02-28T08:42:10;4.26;97.67
69776;DHT22;57049;51.450;-2.516;2023-02-28T08:44:35;4.32;97.48
69776;DHT22;57049;51.450;-2.516;2023-02-28T08:47:00;4.43;97.35
69776;DHT22;57049;51.450;-2.516;2023-02-28T08:49:26;4.40;97.37
69776;DHT22;57049;51.450;-2.516;2023-02-28T08:51:51;4.49;97.03
69776;DHT22;57049;51.450;-2.516;2023-02-28T08:54:17;4.50;96.97
69776;DHT22;57049;51.450;-2.516;2023-02-28T08:56:45;4.60;96.87
69776;DHT22;57049;51.450;-2.516;2023-02-28T08:59:12;4.68;96.74
69776;DHT22;57049;51.450;-2.516;2023-02-28T09:01:37;4.71;96.72
69776;DHT22;57049;51.450;-2.516;2023-02-28T09:04:03;4.74;96.64
69776;DHT22;57049;51.450;-2.516;2023-02-28T09:06:28;4.80;96.49
69776;DHT22;57049;51.450;-2.516;2023-02-28T09:08:57;4.88;96.25
69776;DHT22;57049;51.450;-2.516;2023-02-28T09:11:26;4.87;96.18
69776;DHT22;57049;51.450;-2.516;2023-02-28T09:13:52;4.94;96.15
69776;DHT22;57049;51.450;-2.516;2023-02-28T09:16:17;5.04;96.06
69776;DHT22;57049;51.450;-2.516;2023-02-28T09:18:43;5.07;95.80
69776;DHT22;57049;51.450;-2.516;2023-02-28T09:21:11;5.05;95.71
69776;DHT22;57049;51.450;-2.516;2023-02-28T09:23:43;5.07;95.68
69776;DHT22;57049;51.450;-2.516;2023-02-28T09:26:16;4.99;95.68
69776;DHT22;57049;51.450;-2.516;2023-02-28T09:28:42;4.94;95.84
69776;DHT22;57049;51.450;-2.516;2023-02-28T09:31:15;4.96;95.97
69776;DHT22;57049;51.450;-2.516;2023-02-28T09:33:41;4.99;95.99
69776;DHT22;57049;51.450;-2.516;2023-02-28T09:36:07;5.08;95.97
69776;DHT22;57049;51.450;-2.516;2023-02-28T09:38:33;5.09;95.78
69776;DHT22;57049;51.450;-2.516;2023-02-28T09:41:01;5.14;95.64
69776;DHT22;57049;51.450;-2.516;2023-02-28T09:43:35;5.26;95.51
69776;DHT22;57049;51.450;-2.516;2023-02-28T09:46:14;5.29;95.33
69776;DHT22;57049;51.450;-2.516;2023-02-28T09:48:46;5.42;95.13
69776;DHT22;57049;51.450;-2.516;2023-02-28T09:51:57;5.39;94.64
69776;DHT22;57049;51.450;-2.516;2023-02-28T09:54:20;5.55;94.19
69776;DHT22;57049;51.450;-2.516;2023-02-28T10:05:05;5.93;93.01
69776;DHT22;57049;51.450;-2.516;2023-02-28T10:11:02;5.73;92.03
69776;DHT22;57049;51.450;-2.516;2023-02-28T10:16:14;6.01;91.88
69776;DHT22;57049;51.450;-2.516;2023-02-28T10:18:49;5.94;91.03
69776;DHT22;57049;51.450;-2.516;2023-02-28T10:21:21;5.94;90.53
69776;DHT22;57049;51.450;-2.516;2023-02-28T10:23:49;5.94;90.64
69776;DHT22;57049;51.450;-2.516;2023-02-28T10:26:18;6.10;90.77
69776;DHT22;57049;51.450;-2.516;2023-02-28T10:28:43;6.17;90.51
69776;DHT22;57049;51.450;-2.516;2023-02-28T10:31:15;6.22;90.13
69776;DHT22;57049;51.450;-2.516;2023-02-28T10:33:42;6.22;89.49
69776;DHT22;57049;51.450;-2.516;2023-02-28T10:36:14;6.42;90.01
69776;DHT22;57049;51.450;-2.516;2023-02-28T10:38:40;6.29;90.13
69776;DHT22;57049;51.450;-2.516;2023-02-28T10:41:14;6.07;89.86
69776;DHT22;57049;51.450;-2.516;2023-02-28T10:43:41;6.13;90.49
69776;DHT22;57049;51.450;-2.516;2023-02-28T10:48:43;6.48;90.07
69776;DHT22;57049;51.450;-2.516;2023-02-28T10:51:15;6.37;90.08
69776;DHT22;57049;51.450;-2.516;2023-02-28T10:53:50;6.65;89.66
69776;DHT22;57049;51.450;-2.516;2023-02-28T10:56:23;6.83;89.03
69776;DHT22;57049;51.450;-2.516;2023-02-28T11:01:41;6.68;88.88
69776;DHT22;57049;51.450;-2.516;2023-02-28T11:07:03;6.62;88.32
69776;DHT22;57049;51.450;-2.516;2023-02-28T11:09:38;6.48;88.90
69776;DHT22;57049;51.450;-2.516;2023-02-28T11:12:07;6.48;89.55
69776;DHT22;57049;51.450;-2.516;2023-02-28T11:14:40;6.64;89.25
69776;DHT22;57049;51.450;-2.516;2023-02-28T11:17:22;6.83;88.53
69776;DHT22;57049;51.450;-2.516;2023-02-28T11:19:52;6.76;88.51
69776;DHT22;57049;51.450;-2.516;2023-02-28T11:22:21;6.69;88.13
69776;DHT22;57049;51.450;-2.516;2023-02-28T11:24:51;6.75;88.36
69776;DHT22;57049;51.450;-2.516;2023-02-28T11:30:00;6.78;87.91
69776;DHT22;57049;51.450;-2.516;2023-02-28T11:32:27;6.80;87.88
69776;DHT22;57049;51.450;-2.516;2023-02-28T11:37:35;6.76;87.01
69776;DHT22;57049;51.450;-2.516;2023-02-28T11:40:01;6.88;87.24
69776;DHT22;57049;51.450;-2.516;2023-02-28T11:42:54;6.75;87.06
69776;DHT22;57049;51.450;-2.516;2023-02-28T11:48:24;7.03;87.19
69776;DHT22;57049;51.450;-2.516;2023-02-28T11:51:10;6.90;87.05
69776;DHT22;57049;51.450;-2.516;2023-02-28T12:01:38;7.35;84.75
69776;DHT22;57049;51.450;-2.516;2023-02-28T12:09:24;7.33;85.27
69776;DHT22;57049;51.450;-2.516;2023-02-28T12:12:06;7.40;85.60
69776;DHT22;57049;51.450;-2.516;2023-02-28T12:17:48;7.40;84.73
69776;DHT22;57049;51.450;-2.516;2023-02-28T12:20:49;7.44;84.89
69776;DHT22;57049;51.450;-2.516;2023-02-28T12:26:29;7.23;85.35
69776;DHT22;57049;51.450;-2.516;2023-02-28T12:29:04;7.19;85.36
69776;DHT22;57049;51.450;-2.516;2023-02-28T12:31:37;7.06;85.92
69776;DHT22;57049;51.450;-2.516;2023-02-28T12:34:08;7.10;86.22
69776;DHT22;57049;51.450;-2.516;2023-02-28T12:36:35;7.13;86.26
69776;DHT22;57049;51.450;-2.516;2023-02-28T12:39:32;7.16;86.50
69776;DHT22;57049;51.450;-2.516;2023-02-28T12:42:03;7.14;86.80
69776;DHT22;57049;51.450;-2.516;2023-02-28T12:44:37;7.02;87.25
69776;DHT22;57049;51.450;-2.516;2023-02-28T12:47:10;6.97;87.40
69776;DHT22;57049;51.450;-2.516;2023-02-28T12:49:45;6.79;87.98
69776;DHT22;57049;51.450;-2.516;2023-02-28T12:52:17;6.72;88.88
69776;DHT22;57049;51.450;-2.516;2023-02-28T12:57:34;6.92;89.20
69776;DHT22;57049;51.450;-2.516;2023-02-28T13:00:04;6.99;88.40
69776;DHT22;57049;51.450;-2.516;2023-02-28T13:05:34;7.22;87.43
69776;DHT22;57049;51.450;-2.516;2023-02-28T13:10:47;7.64;86.46
69776;DHT22;57049;51.450;-2.516;2023-02-28T13:13:22;7.73;85.79
69776;DHT22;57049;51.450;-2.516;2023-02-28T13:18:35;7.65;84.94
69776;DHT22;57049;51.450;-2.516;2023-02-28T13:21:03;7.89;84.48
69776;DHT22;57049;51.450;-2.516;2023-02-28T13:31:31;7.86;84.72
69776;DHT22;57049;51.450;-2.516;2023-02-28T13:36:27;7.58;85.40
69776;DHT22;57049;51.450;-2.516;2023-02-28T13:39:01;7.73;85.38
69776;DHT22;57049;51.450;-2.516;2023-02-28T13:46:29;7.74;85.51
69776;DHT22;57049;51.450;-2.516;2023-02-28T13:48:54;7.67;86.15
69776;DHT22;57049;51.450;-2.516;2023-02-28T13:51:44;7.96;85.61
69776;DHT22;57049;51.450;-2.516;2023-02-28T13:54:24;7.61;86.27
69776;DHT22;57049;51.450;-2.516;2023-02-28T14:05:00;7.63;87.40
69776;DHT22;57049;51.450;-2.516;2023-02-28T14:07:33;7.40;88.34
69776;DHT22;57049;51.450;-2.516;2023-02-28T14:10:05;7.40;89.02
69776;DHT22;57049;51.450;-2.516;2023-02-28T14:18:21;7.64;88.10
69776;DHT22;57049;51.450;-2.516;2023-02-28T14:20:48;7.65;88.00
69776;DHT22;57049;51.450;-2.516;2023-02-28T14:23:32;7.55;87.49
69776;DHT22;57049;51.450;-2.516;2023-02-28T14:28:47;7.67;88.16
69776;DHT22;57049;51.450;-2.516;2023-02-28T14:31:28;7.64;87.93
69776;DHT22;57049;51.450;-2.516;2023-02-28T14:36:58;8.01;86.93
69776;DHT22;57049;51.450;-2.516;2023-02-28T14:39:26;8.30;86.40
69776;DHT22;57049;51.450;-2.516;2023-02-28T14:41:56;8.46;85.16
69776;DHT22;57049;51.450;-2.516;2023-02-28T14:44:25;8.54;84.63
69776;DHT22;57049;51.450;-2.516;2023-02-28T14:46:54;8.35;85.22
69776;DHT22;57049;51.450;-2.516;2023-02-28T14:49:28;8.30;86.05
69776;DHT22;57049;51.450;-2.516;2023-02-28T14:54:36;8.01;86.76
69776;DHT22;57049;51.450;-2.516;2023-02-28T14:57:02;8.17;86.92
69776;DHT22;57049;51.450;-2.516;2023-02-28T14:59:31;8.46;85.72
69776;DHT22;57049;51.450;-2.516;2023-02-28T15:02:20;7.98;86.67
69776;DHT22;57049;51.450;-2.516;2023-02-28T15:04:54;7.89;88.25
69776;DHT22;57049;51.450;-2.516;2023-02-28T15:07:20;7.54;89.52
69776;DHT22;57049;51.450;-2.516;2023-02-28T15:12:35;7.40;89.29
69776;DHT22;57049;51.450;-2.516;2023-02-28T15:15:01;7.22;90.31
69776;DHT22;57049;51.450;-2.516;2023-02-28T15:17:27;7.28;90.06
69776;DHT22;57049;51.450;-2.516;2023-02-28T15:19:53;7.17;90.29
69776;DHT22;57049;51.450;-2.516;2023-02-28T15:22:26;7.31;90.27
69776;DHT22;57049;51.450;-2.516;2023-02-28T15:24:54;7.48;89.74
69776;DHT22;57049;51.450;-2.516;2023-02-28T15:27:23;7.86;88.95
69776;DHT22;57049;51.450;-2.516;2023-02-28T15:29:59;7.96;87.65
69776;DHT22;57049;51.450;-2.516;2023-02-28T15:32:33;7.91;86.51
69776;DHT22;57049;51.450;-2.516;2023-02-28T15:35:38;8.15;86.02
69776;DHT22;57049;51.450;-2.516;2023-02-28T15:43:04;7.98;85.78
69776;DHT22;57049;51.450;-2.516;2023-02-28T15:45:47;8.13;85.79
69776;DHT22;57049;51.450;-2.516;2023-02-28T15:48:22;8.05;86.05
69776;DHT22;57049;51.450;-2.516;2023-02-28T15:50:52;7.92;84.66
69776;DHT22;57049;51.450;-2.516;2023-02-28T15:53:22;7.77;85.04
69776;DHT22;57049;51.450;-2.516;2023-02-28T15:55:57;7.82;84.76
69776;DHT22;57049;51.450;-2.516;2023-02-28T15:58:24;7.70;85.53
69776;DHT22;57049;51.450;-2.516;2023-02-28T16:01:27;7.78;84.79
69776;DHT22;57049;51.450;-2.516;2023-02-28T16:04:01;7.77;84.43
69776;DHT22;57049;51.450;-2.516;2023-02-28T16:09:01;7.77;84.04
69776;DHT22;57049;51.450;-2.516;2023-02-28T16:11:27;7.65;84.19
69776;DHT22;57049;51.450;-2.516;2023-02-28T16:13:53;7.57;84.01
69776;DHT22;57049;51.450;-2.516;2023-02-28T16:16:21;7.63;84.29
69776;DHT22;57049;51.450;-2.516;2023-02-28T16:18:47;7.65;84.31
69776;DHT22;57049;51.450;-2.516;2023-02-28T16:21:13;7.68;83.94
69776;DHT22;57049;51.450;-2.516;2023-02-28T16:23:38;7.65;83.83
69776;DHT22;57049;51.450;-2.516;2023-02-28T16:26:05;7.61;83.44
69776;DHT22;57049;51.450;-2.516;2023-02-28T16:28:33;7.68;83.46
69776;DHT22;57049;51.450;-2.516;2023-02-28T16:31:01;7.61;83.32
69776;DHT22;57049;51.450;-2.516;2023-02-28T16:33:31;7.61;83.43
69776;DHT22;57049;51.450;-2.516;2023-02-28T16:35:57;7.57;83.29
69776;DHT22;57049;51.450;-2.516;2023-02-28T16:38:23;7.51;83.31
69776;DHT22;57049;51.450;-2.516;2023-02-28T16:40:50;7.47;83.21
69776;DHT22;57049;51.450;-2.516;2023-02-28T16:43:19;7.44;83.39
69776;DHT22;57049;51.450;-2.516;2023-02-28T16:45:46;7.50;83.15
69776;DHT22;57049;51.450;-2.516;2023-02-28T16:48:14;7.51;82.78
69776;DHT22;57049;51.450;-2.516;2023-02-28T16:50:39;7.61;82.76
69776;DHT22;57049;51.450;-2.516;2023-02-28T16:53:05;7.70;82.84
69776;DHT22;57049;51.450;-2.516;2023-02-28T16:55:30;7.73;82.31
69776;DHT22;57049;51.450;-2.516;2023-02-28T16:57:59;7.71;82.35
69776;DHT22;57049;51.450;-2.516;2023-02-28T17:00:26;7.67;82.31
69776;DHT22;57049;51.450;-2.516;2023-02-28T17:02:53;7.71;82.54
69776;DHT22;57049;51.450;-2.516;2023-02-28T17:05:19;7.73;82.74
69776;DHT22;57049;51.450;-2.516;2023-02-28T17:07:45;7.68;82.55
69776;DHT22;57049;51.450;-2.516;2023-02-28T17:10:29;7.58;82.68
69776;DHT22;57049;51.450;-2.516;2023-02-28T17:12:54;7.64;82.90
69776;DHT22;57049;51.450;-2.516;2023-02-28T17:15:20;7.48;83.16
69776;DHT22;57049;51.450;-2.516;2023-02-28T17:17:48;7.46;83.32
69776;DHT22;57049;51.450;-2.516;2023-02-28T17:20:20;7.40;83.40
69776;DHT22;57049;51.450;-2.516;2023-02-28T17:22:49;7.35;83.16
69776;DHT22;57049;51.450;-2.516;2023-02-28T17:25:15;7.31;83.58
69776;DHT22;57049;51.450;-2.516;2023-02-28T17:27:42;7.27;83.62
69776;DHT22;57049;51.450;-2.516;2023-02-28T17:30:17;7.20;83.85
69776;DHT22;57049;51.450;-2.516;2023-02-28T17:32:44;7.23;83.86
69776;DHT22;57049;51.450;-2.516;2023-02-28T17:35:10;7.23;83.99
69776;DHT22;57049;51.450;-2.516;2023-02-28T17:37:36;7.23;84.19
69776;DHT22;57049;51.450;-2.516;2023-02-28T17:40:02;7.16;84.17
69776;DHT22;57049;51.450;-2.516;2023-02-28T17:42:28;7.16;84.20
69776;DHT22;57049;51.450;-2.516;2023-02-28T17:44:53;7.13;84.28
69776;DHT22;57049;51.450;-2.516;2023-02-28T17:47:18;7.14;84.34
69776;DHT22;57049;51.450;-2.516;2023-02-28T17:49:44;7.12;84.30
69776;DHT22;57049;51.450;-2.516;2023-02-28T17:52:09;7.10;84.46
69776;DHT22;57049;51.450;-2.516;2023-02-28T17:54:35;7.07;84.25
69776;DHT22;57049;51.450;-2.516;2023-02-28T17:57:01;7.09;84.53
69776;DHT22;57049;51.450;-2.516;2023-02-28T17:59:26;7.06;84.49
69776;DHT22;57049;51.450;-2.516;2023-02-28T18:01:59;7.04;84.63
69776;DHT22;57049;51.450;-2.516;2023-02-28T18:04:25;7.04;84.68
69776;DHT22;57049;51.450;-2.516;2023-02-28T18:06:52;7.00;84.90
69776;DHT22;57049;51.450;-2.516;2023-02-28T18:09:21;6.92;85.21
69776;DHT22;57049;51.450;-2.516;2023-02-28T18:11:47;6.90;85.61
69776;DHT22;57049;51.450;-2.516;2023-02-28T18:14:18;6.83;86.07
69776;DHT22;57049;51.450;-2.516;2023-02-28T18:16:45;6.80;86.49
69776;DHT22;57049;51.450;-2.516;2023-02-28T18:19:12;6.80;86.63